Aérodrome :
LOGIN :

S'inscrire | Disclaimer

   EN    FR    IT 

 










Légende :    VFR   VFR Marginal   IFR   IFR Intensif   IFR Très Intensif
Visi : 
Plafond : 
>= 8 km
>= 3000ft
5 à 8 km
1000 à 3000 ft
1500m à 5 km
500 à 1000 ft
800 à 1500m
200 à 500 ft
< 800m
< 200 ft
Symboles :   Orages  Brouillard  Fortes neiges  Fortes précipitations  Vent > 20 kt
SIGMETs :   Divers  Orages  Givrage  Turbulence  Onde Orograph.  Cendres Volcan.






- Altitude de l'aérodrome : 36 ft
- Code IATA : LTQ


LFAT - Le Touquet

DERNIER METAR :
  • 011530Z AUTO 28013KT 250V310 CAVOK 09/05 Q1025 NOSIG

METARs EXPIRÉS :
  • 011500Z AUTO 29013KT CAVOK 09/05 Q1025 NOSIG
  • 011430Z AUTO 28014KT 250V310 9999 FEW022 BKN110 BKN150 09/05 Q1025 NOSIG
  • 011400Z AUTO 28016KT 250V310 CAVOK 10/05 Q1025 TEMPO 29020G30KT
  • 011330Z AUTO 28014KT 250V310 CAVOK 10/05 Q1025 TEMPO 29020G30KT
  • 011300Z AUTO 28014G24KT 9999 FEW023 09/05 Q1025 NOSIG

TAF TAF LFAT
Valide du 01 à 15h jusqu'au 02 à 00h UTC


011400Z 0115/0124 28012KT CAVOK
ATIS : +33 3 21 06 62 84



MET'MAP, la Météo Aéronautique d'un coup d'oeil ! - Copyright ORBIFLY Décembre 2007 - Disclaimer

ORBIFLY MET'MAP TEAM :

Programmation & Développement : Alexandra Zaïnal
Sur une idée originale de : Baudouin d'Aumeries
Soutien technique & logistique : Manuel Goepfert
Assistance : Marc-Olivier Méhu




SOURCES & CREDITS :

   NOAA